Time;durP1;ratioP1;P1;durP2;ratioP2;P2;SDS_P1;SDS_P2;PMS_P1;PMS_P2;Temp;Humidity;BMP_temperature;BMP_pressure;BME280_temperature;BME280_humidity;BME280_pressure;Samples;Min_cycle;Max_cycle;Signal;HPM_P1;HPM_P2
2024/01/23 00:01:35;;;;;;;5.73;2.40;;;;;;;;;;5076049;28;20439;-68
2024/01/23 00:04:02;;;;;;;5.10;2.10;;;;;;;;;;5075915;28;20497;-69
2024/01/23 00:06:30;;;;;;;8.07;2.00;;;;;;;;;;5075694;28;20296;-68
2024/01/23 00:08:58;;;;;;;5.73;2.70;;;;;;;;;;5075654;28;20803;-68
2024/01/23 00:11:25;;;;;;;3.43;1.80;;;;;;;;;;5075537;28;20535;-68
2024/01/23 00:13:52;;;;;;;5.63;1.93;;;;;;;;;;5075504;28;20977;-68
2024/01/23 00:16:19;;;;;;;5.28;1.83;;;;;;;;;;5075623;28;20962;-69
2024/01/23 00:18:46;;;;;;;8.20;2.10;;;;;;;;;;5075775;28;20216;-68
2024/01/23 00:21:13;;;;;;;5.17;1.90;;;;;;;;;;5075352;28;20475;-68
2024/01/23 00:23:41;;;;;;;4.57;1.90;;;;;;;;;;5075430;28;20526;-68
2024/01/23 00:26:08;;;;;;;6.70;1.70;;;;;;;;;;5075366;28;20908;-68
2024/01/23 00:28:35;;;;;;;4.83;2.10;;;;;;;;;;5075492;28;20479;-69
2024/01/23 00:31:02;;;;;;;4.80;1.73;;;;;;;;;;5075481;28;20482;-69
2024/01/23 00:33:29;;;;;;;3.47;1.60;;;;;;;;;;5075341;28;20450;-69
2024/01/23 00:35:56;;;;;;;7.77;3.93;;;;;;;;;;5075273;28;20527;-69
2024/01/23 00:38:23;;;;;;;7.63;2.20;;;;;;;;;;5075080;28;20537;-68
2024/01/23 00:40:51;;;;;;;7.27;2.23;;;;;;;;;;5075223;28;20446;-68
2024/01/23 00:43:18;;;;;;;5.10;1.58;;;;;;;;;;5075231;28;20883;-69
2024/01/23 00:45:45;;;;;;;8.47;2.10;;;;;;;;;;5075200;28;20200;-68
2024/01/23 00:48:12;;;;;;;4.67;1.80;;;;;;;;;;5075051;28;20480;-68
2024/01/23 00:50:39;;;;;;;5.37;2.33;;;;;;;;;;5075066;28;20443;-68
2024/01/23 00:53:06;;;;;;;4.13;1.70;;;;;;;;;;5074917;28;20849;-69
2024/01/23 00:55:33;;;;;;;5.57;1.60;;;;;;;;;;5074996;28;20447;-68
2024/01/23 00:58:01;;;;;;;10.00;2.75;;;;;;;;;;5074862;28;20530;-68
2024/01/23 01:00:29;;;;;;;4.97;1.70;;;;;;;;;;5074824;28;20279;-69
2024/01/23 01:02:56;;;;;;;1.77;1.50;;;;;;;;;;5074671;28;20450;-68
2024/01/23 01:05:23;;;;;;;3.93;1.70;;;;;;;;;;5074603;28;20589;-69
2024/01/23 01:07:50;;;;;;;3.70;1.70;;;;;;;;;;5073985;28;20479;-69
2024/01/23 01:10:17;;;;;;;2.50;1.50;;;;;;;;;;5074683;28;20443;-68
2024/01/23 01:12:44;;;;;;;4.57;2.47;;;;;;;;;;5074766;28;20846;-68
2024/01/23 01:15:12;;;;;;;4.13;1.48;;;;;;;;;;5074344;28;21029;-68
2024/01/23 01:17:39;;;;;;;5.13;2.43;;;;;;;;;;5074397;28;20189;-69
2024/01/23 01:20:06;;;;;;;4.43;1.30;;;;;;;;;;5074070;28;20550;-68
2024/01/23 01:22:33;;;;;;;3.10;1.70;;;;;;;;;;5074488;28;20879;-68
2024/01/23 01:25:01;;;;;;;5.33;1.93;;;;;;;;;;5074383;28;20534;-68
2024/01/23 01:27:28;;;;;;;5.47;1.70;;;;;;;;;;5074132;28;20475;-67
2024/01/23 01:29:55;;;;;;;1.53;1.43;;;;;;;;;;5074179;28;20450;-68
2024/01/23 01:32:23;;;;;;;4.05;1.50;;;;;;;;;;5074074;28;20783;-67
2024/01/23 01:34:50;;;;;;;13.13;1.97;;;;;;;;;;5074193;28;20189;-68
2024/01/23 01:37:17;;;;;;;4.68;1.67;;;;;;;;;;5074155;28;20452;-68
2024/01/23 01:39:44;;;;;;;4.07;1.90;;;;;;;;;;5073996;28;20719;-68
2024/01/23 01:42:11;;;;;;;4.23;1.60;;;;;;;;;;5073963;28;20443;-68
2024/01/23 01:44:38;;;;;;;2.60;1.60;;;;;;;;;;5073888;28;20443;-68
2024/01/23 01:47:05;;;;;;;6.33;1.63;;;;;;;;;;5073644;28;20503;-68
2024/01/23 01:49:33;;;;;;;3.57;2.00;;;;;;;;;;5073920;28;20535;-68
2024/01/23 01:52:01;;;;;;;2.67;1.43;;;;;;;;;;5073886;28;20509;-68
2024/01/23 01:54:29;;;;;;;3.50;1.30;;;;;;;;;;5073752;28;20520;-68
2024/01/23 01:56:59;;;;;;;2.80;1.20;;;;;;;;;;5073611;28;20534;-68
2024/01/23 01:59:26;;;;;;;2.97;1.43;;;;;;;;;;5073513;28;20532;-68
2024/01/23 02:01:53;;;;;;;2.50;1.40;;;;;;;;;;5073992;28;20526;-68
2024/01/23 02:04:20;;;;;;;3.63;1.57;;;;;;;;;;5073598;28;20446;-68
2024/01/23 02:06:48;;;;;;;5.43;1.43;;;;;;;;;;5073598;28;20522;-68
2024/01/23 02:09:15;;;;;;;3.90;1.47;;;;;;;;;;5073598;28;20443;-68
2024/01/23 02:11:55;;;;;;;2.90;1.30;;;;;;;;;;5073338;28;21011;-68
2024/01/23 02:14:22;;;;;;;3.73;1.30;;;;;;;;;;5073324;28;20455;-68
2024/01/23 02:16:49;;;;;;;3.47;0.90;;;;;;;;;;5073469;28;20451;-68
2024/01/23 02:19:16;;;;;;;2.60;1.23;;;;;;;;;;5072547;28;20447;-68
2024/01/23 02:21:43;;;;;;;5.40;1.60;;;;;;;;;;5073058;28;20835;-68
2024/01/23 02:24:11;;;;;;;12.00;1.30;;;;;;;;;;5073249;28;20535;-68
2024/01/23 02:26:38;;;;;;;4.07;1.47;;;;;;;;;;5073054;28;20465;-68
2024/01/23 02:29:05;;;;;;;4.33;1.70;;;;;;;;;;5073156;28;20483;-68
2024/01/23 02:31:32;;;;;;;7.23;1.60;;;;;;;;;;5073231;28;20492;-68
2024/01/23 02:33:59;;;;;;;4.77;1.60;;;;;;;;;;5073159;28;20451;-68
2024/01/23 02:36:26;;;;;;;3.88;2.10;;;;;;;;;;5073035;28;20447;-68
2024/01/23 02:38:53;;;;;;;2.10;1.90;;;;;;;;;;5073195;28;20192;-68
2024/01/23 02:41:21;;;;;;;7.37;1.67;;;;;;;;;;5072868;28;20535;-68
2024/01/23 02:43:48;;;;;;;3.63;1.43;;;;;;;;;;5073157;28;20527;-68
2024/01/23 02:46:15;;;;;;;4.87;1.80;;;;;;;;;;5073101;28;20439;-68
2024/01/23 02:48:42;;;;;;;2.40;1.57;;;;;;;;;;5072970;28;20491;-68
2024/01/23 02:51:09;;;;;;;2.83;1.73;;;;;;;;;;5073020;28;20535;-68
2024/01/23 02:53:36;;;;;;;2.60;1.70;;;;;;;;;;5073499;28;20443;-68
2024/01/23 02:56:02;;;;;;;2.90;1.67;;;;;;;;;;5073059;28;20538;-68
2024/01/23 02:58:30;;;;;;;3.60;1.50;;;;;;;;;;5072941;28;20451;-68
2024/01/23 03:00:57;;;;;;;4.07;1.30;;;;;;;;;;5072930;28;20451;-68
2024/01/23 03:03:24;;;;;;;2.03;1.40;;;;;;;;;;5072863;28;20450;-68
2024/01/23 03:05:51;;;;;;;3.70;1.67;;;;;;;;;;5072748;28;20469;-68
2024/01/23 03:08:22;;;;;;;4.75;1.40;;;;;;;;;;5072587;28;20485;-68
2024/01/23 03:10:49;;;;;;;3.50;1.37;;;;;;;;;;5072950;28;20242;-68
2024/01/23 03:13:16;;;;;;;8.17;1.87;;;;;;;;;;5072856;28;20451;-68
2024/01/23 03:15:48;;;;;;;4.03;2.38;;;;;;;;;;5072660;28;20808;-68
2024/01/23 03:18:15;;;;;;;6.22;1.70;;;;;;;;;;5072731;28;20201;-68
2024/01/23 03:20:41;;;;;;;3.55;1.83;;;;;;;;;;5072434;28;20217;-68
2024/01/23 03:23:10;;;;;;;5.43;1.60;;;;;;;;;;5072706;28;20197;-68
2024/01/23 03:25:37;;;;;;;4.07;2.28;;;;;;;;;;5072768;28;20855;-68
2024/01/23 03:28:04;;;;;;;4.60;1.77;;;;;;;;;;5072560;28;20217;-68
2024/01/23 03:30:31;;;;;;;4.17;1.70;;;;;;;;;;5074619;28;20280;-68
2024/01/23 03:33:00;;;;;;;4.18;1.30;;;;;;;;;;5076394;28;20486;-68
2024/01/23 03:35:27;;;;;;;2.95;1.80;;;;;;;;;;5076227;28;20204;-68
2024/01/23 03:37:55;;;;;;;5.78;1.42;;;;;;;;;;5076478;28;20251;-68
2024/01/23 03:40:22;;;;;;;2.67;1.23;;;;;;;;;;5076434;28;20193;-68
2024/01/23 03:42:49;;;;;;;5.13;1.73;;;;;;;;;;5076262;28;20280;-68
2024/01/23 03:45:16;;;;;;;2.85;1.80;;;;;;;;;;5076238;28;20200;-68
2024/01/23 03:47:43;;;;;;;5.23;1.50;;;;;;;;;;5076004;28;20305;-68
2024/01/23 03:50:11;;;;;;;4.50;1.95;;;;;;;;;;5076011;28;20538;-69
2024/01/23 03:52:38;;;;;;;2.88;1.55;;;;;;;;;;5076082;28;20217;-68
2024/01/23 03:55:05;;;;;;;6.68;2.00;;;;;;;;;;5076279;28;20191;-68
2024/01/23 03:57:32;;;;;;;5.53;2.10;;;;;;;;;;5075991;28;20185;-69
2024/01/23 03:59:59;;;;;;;4.57;2.30;;;;;;;;;;5075885;28;20192;-68
2024/01/23 04:02:27;;;;;;;4.88;1.90;;;;;;;;;;5075775;28;20478;-68
2024/01/23 04:04:54;;;;;;;4.88;1.70;;;;;;;;;;5075945;28;20266;-68
2024/01/23 04:07:23;;;;;;;2.20;1.58;;;;;;;;;;5075576;28;20629;-68
2024/01/23 04:09:50;;;;;;;3.50;1.30;;;;;;;;;;5075777;28;20230;-68
2024/01/23 04:12:16;;;;;;;5.85;2.17;;;;;;;;;;5075786;28;20189;-68
2024/01/23 04:14:43;;;;;;;1.88;1.27;;;;;;;;;;5075712;28;20185;-68
2024/01/23 04:17:10;;;;;;;2.33;1.83;;;;;;;;;;5075544;28;20593;-68
2024/01/23 04:19:38;;;;;;;5.30;1.30;;;;;;;;;;5075774;28;20447;-68
2024/01/23 04:22:05;;;;;;;5.50;1.40;;;;;;;;;;5075695;28;20456;-68
2024/01/23 04:24:33;;;;;;;7.17;1.60;;;;;;;;;;5075375;28;20507;-68
2024/01/23 04:27:00;;;;;;;2.50;1.50;;;;;;;;;;5075350;28;20458;-68
2024/01/23 04:29:27;;;;;;;3.40;1.25;;;;;;;;;;5075201;28;20562;-68
2024/01/23 04:31:54;;;;;;;3.60;1.33;;;;;;;;;;5075188;28;20195;-68
2024/01/23 04:34:21;;;;;;;3.10;1.42;;;;;;;;;;5075358;28;20446;-68
2024/01/23 04:36:48;;;;;;;4.63;2.15;;;;;;;;;;5075354;28;20200;-68
2024/01/23 04:39:15;;;;;;;4.85;1.65;;;;;;;;;;5075262;28;20197;-68
2024/01/23 04:41:43;;;;;;;3.65;1.50;;;;;;;;;;5073990;28;20564;-68
2024/01/23 04:44:10;;;;;;;3.25;1.30;;;;;;;;;;5075205;28;20189;-69
2024/01/23 04:46:37;;;;;;;1.60;1.27;;;;;;;;;;5075187;28;20185;-68
2024/01/23 04:49:04;;;;;;;2.80;1.40;;;;;;;;;;5074869;28;20539;-68
2024/01/23 04:51:31;;;;;;;5.88;2.53;;;;;;;;;;5074990;28;20284;-68
2024/01/23 04:53:58;;;;;;;4.97;1.65;;;;;;;;;;5074929;28;20189;-68
2024/01/23 04:56:25;;;;;;;5.13;1.50;;;;;;;;;;5074872;28;20622;-68
2024/01/23 04:58:53;;;;;;;2.22;1.10;;;;;;;;;;5074737;28;20196;-68
2024/01/23 05:01:21;;;;;;;6.90;1.67;;;;;;;;;;5074843;28;20287;-68
2024/01/23 05:03:48;;;;;;;3.45;1.42;;;;;;;;;;5074768;28;20193;-68
2024/01/23 05:06:14;;;;;;;5.40;1.05;;;;;;;;;;5074720;28;20193;-68
2024/01/23 05:08:41;;;;;;;3.80;1.30;;;;;;;;;;5074538;28;20213;-68
2024/01/23 05:11:08;;;;;;;3.55;1.23;;;;;;;;;;5074416;28;20443;-68
2024/01/23 05:13:35;;;;;;;4.63;1.20;;;;;;;;;;5074670;28;20280;-68
2024/01/23 05:16:04;;;;;;;1.90;1.13;;;;;;;;;;5074561;28;20197;-68
2024/01/23 05:18:31;;;;;;;3.90;1.35;;;;;;;;;;5074434;28;20538;-68
2024/01/23 05:20:57;;;;;;;3.20;1.40;;;;;;;;;;5074339;28;20647;-68
2024/01/23 05:23:24;;;;;;;6.30;1.50;;;;;;;;;;5074257;28;20542;-68
2024/01/23 05:25:51;;;;;;;2.65;1.77;;;;;;;;;;5074074;28;20200;-68
2024/01/23 05:28:18;;;;;;;3.75;1.20;;;;;;;;;;5074148;28;20221;-67
2024/01/23 05:30:45;;;;;;;7.13;1.80;;;;;;;;;;5074230;28;20549;-68
2024/01/23 05:33:14;;;;;;;5.57;1.40;;;;;;;;;;5074071;28;20534;-68
2024/01/23 05:35:40;;;;;;;6.03;1.20;;;;;;;;;;5074060;28;20550;-68
2024/01/23 05:38:07;;;;;;;9.88;1.42;;;;;;;;;;5073768;28;20887;-68
2024/01/23 05:40:34;;;;;;;2.50;1.47;;;;;;;;;;5073844;28;20487;-68
2024/01/23 05:43:02;;;;;;;4.40;1.00;;;;;;;;;;5073989;28;20536;-68
2024/01/23 05:45:29;;;;;;;3.93;1.33;;;;;;;;;;5073900;28;20189;-68
2024/01/23 05:47:56;;;;;;;1.88;1.40;;;;;;;;;;5073735;28;20443;-68
2024/01/23 05:50:24;;;;;;;6.15;1.40;;;;;;;;;;5073644;28;20277;-68
2024/01/23 05:52:51;;;;;;;6.13;1.98;;;;;;;;;;5073272;28;20607;-68
2024/01/23 05:55:18;;;;;;;3.45;1.10;;;;;;;;;;5073759;28;20281;-68
2024/01/23 05:57:45;;;;;;;5.50;1.37;;;;;;;;;;5073872;28;20229;-68
2024/01/23 06:00:13;;;;;;;1.47;1.37;;;;;;;;;;5073694;28;20454;-68
2024/01/23 06:02:40;;;;;;;3.25;1.20;;;;;;;;;;5073507;28;20444;-68
2024/01/23 06:05:08;;;;;;;5.20;1.00;;;;;;;;;;5073524;28;20280;-68
2024/01/23 06:07:41;;;;;;;4.78;1.38;;;;;;;;;;5073359;28;20448;-68
2024/01/23 06:10:09;;;;;;;4.73;1.10;;;;;;;;;;5073511;28;20217;-69
2024/01/23 06:12:36;;;;;;;7.13;1.80;;;;;;;;;;5073640;28;20538;-68
2024/01/23 06:15:03;;;;;;;3.42;1.45;;;;;;;;;;5073202;28;20933;-68
2024/01/23 06:17:30;;;;;;;3.80;1.47;;;;;;;;;;5073312;28;20185;-68
2024/01/23 06:19:57;;;;;;;4.40;2.37;;;;;;;;;;5072980;28;20503;-68
2024/01/23 06:22:25;;;;;;;6.75;2.33;;;;;;;;;;5073374;28;20501;-68
2024/01/23 06:25:02;;;;;;;4.40;1.57;;;;;;;;;;5073294;28;20254;-68
2024/01/23 06:27:29;;;;;;;5.30;1.20;;;;;;;;;;5073224;28;20454;-68
2024/01/23 06:29:56;;;;;;;4.20;1.30;;;;;;;;;;5072957;28;20483;-68
2024/01/23 06:32:23;;;;;;;3.03;1.48;;;;;;;;;;5072967;28;20232;-68
2024/01/23 06:34:50;;;;;;;7.47;1.50;;;;;;;;;;5072861;28;20185;-68
2024/01/23 06:37:17;;;;;;;6.18;1.25;;;;;;;;;;5072935;28;20534;-68
2024/01/23 06:39:44;;;;;;;9.07;1.70;;;;;;;;;;5072960;28;20773;-69
2024/01/23 06:42:12;;;;;;;4.38;1.67;;;;;;;;;;5072967;28;21008;-68
2024/01/23 06:44:39;;;;;;;4.07;1.25;;;;;;;;;;5072829;28;20196;-69
2024/01/23 06:47:06;;;;;;;4.05;1.67;;;;;;;;;;5072848;28;20200;-68
2024/01/23 06:49:33;;;;;;;4.85;1.23;;;;;;;;;;5073205;28;20309;-68
2024/01/23 06:52:00;;;;;;;7.43;1.67;;;;;;;;;;5072722;28;20225;-68
2024/01/23 06:54:27;;;;;;;6.18;1.52;;;;;;;;;;5072814;28;20849;-68
2024/01/23 06:56:54;;;;;;;4.20;1.52;;;;;;;;;;5072858;28;20538;-68
2024/01/23 06:59:23;;;;;;;2.30;1.30;;;;;;;;;;5072768;28;20193;-68
2024/01/23 07:01:50;;;;;;;5.15;1.63;;;;;;;;;;5072620;28;20189;-68
2024/01/23 07:04:17;;;;;;;5.97;1.57;;;;;;;;;;5072849;28;20568;-68
2024/01/23 07:06:44;;;;;;;3.93;1.50;;;;;;;;;;5076754;28;20440;-68
2024/01/23 07:09:11;;;;;;;3.63;1.40;;;;;;;;;;5076681;28;20569;-69
2024/01/23 07:11:42;;;;;;;5.97;1.60;;;;;;;;;;5076732;28;20850;-69
2024/01/23 07:14:09;;;;;;;6.00;1.17;;;;;;;;;;5076620;28;20189;-68
2024/01/23 07:16:37;;;;;;;7.22;2.25;;;;;;;;;;5076782;28;20530;-68
2024/01/23 07:19:04;;;;;;;5.90;1.95;;;;;;;;;;5076647;28;20275;-68
2024/01/23 07:21:31;;;;;;;6.95;3.70;;;;;;;;;;5076392;28;20217;-69
2024/01/23 07:23:58;;;;;;;5.33;1.50;;;;;;;;;;5076480;28;20189;-68
2024/01/23 07:26:25;;;;;;;8.50;2.10;;;;;;;;;;5076401;28;20818;-68
2024/01/23 07:28:52;;;;;;;6.60;1.80;;;;;;;;;;5076124;28;20566;-68
2024/01/23 07:31:19;;;;;;;4.90;2.17;;;;;;;;;;5076270;28;20957;-68
2024/01/23 07:33:47;;;;;;;7.82;2.55;;;;;;;;;;5076160;28;20417;-68
2024/01/23 07:36:14;;;;;;;6.90;2.23;;;;;;;;;;5076504;28;20323;-68
2024/01/23 07:38:41;;;;;;;9.18;3.33;;;;;;;;;;5076122;28;20443;-68
2024/01/23 07:41:08;;;;;;;13.15;3.90;;;;;;;;;;5076084;28;20280;-69
2024/01/23 07:43:35;;;;;;;5.90;2.07;;;;;;;;;;5075413;28;20181;-69
2024/01/23 07:46:02;;;;;;;10.77;3.28;;;;;;;;;;5075724;28;20526;-69
2024/01/23 07:48:29;;;;;;;6.43;2.70;;;;;;;;;;5075576;28;20185;-69
2024/01/23 07:50:57;;;;;;;9.43;2.60;;;;;;;;;;5071692;28;20810;-69
2024/01/23 07:53:24;;;;;;;5.95;2.90;;;;;;;;;;5075547;28;20440;-68
2024/01/23 07:55:52;;;;;;;8.68;2.20;;;;;;;;;;5075515;28;20189;-69
2024/01/23 07:58:19;;;;;;;10.53;3.30;;;;;;;;;;5075008;28;20242;-69
2024/01/23 08:00:46;;;;;;;7.30;2.10;;;;;;;;;;5075411;28;20535;-69
2024/01/23 08:03:13;;;;;;;4.93;2.33;;;;;;;;;;5074060;28;20538;-69
2024/01/23 08:05:41;;;;;;;6.27;3.20;;;;;;;;;;5075045;28;20224;-69
2024/01/23 08:08:09;;;;;;;6.57;2.43;;;;;;;;;;5073989;28;20440;-70
2024/01/23 08:10:36;;;;;;;7.55;2.45;;;;;;;;;;5074966;28;20493;-70
2024/01/23 08:13:03;;;;;;;9.05;3.25;;;;;;;;;;5072514;28;20181;-68
2024/01/23 08:15:30;;;;;;;8.43;2.77;;;;;;;;;;5074884;28;20188;-68
2024/01/23 08:17:57;;;;;;;7.33;2.23;;;;;;;;;;5074872;28;20554;-72
2024/01/23 08:20:24;;;;;;;4.60;2.83;;;;;;;;;;5074960;28;20470;-67
2024/01/23 08:22:51;;;;;;;7.50;3.13;;;;;;;;;;5074847;28;20639;-69
2024/01/23 08:25:20;;;;;;;8.60;2.57;;;;;;;;;;5075230;28;20428;-69
2024/01/23 08:27:47;;;;;;;7.10;2.93;;;;;;;;;;5075144;28;20440;-72
2024/01/23 08:30:15;;;;;;;6.00;2.00;;;;;;;;;;5074893;28;20532;-74
2024/01/23 08:32:42;;;;;;;6.70;2.08;;;;;;;;;;5074639;28;20446;-70
2024/01/23 08:35:10;;;;;;;16.13;3.00;;;;;;;;;;5074823;28;20181;-67
2024/01/23 08:37:37;;;;;;;7.65;1.85;;;;;;;;;;5074956;28;20186;-69
2024/01/23 08:40:06;;;;;;;9.55;2.28;;;;;;;;;;5075123;28;20186;-70
2024/01/23 08:42:34;;;;;;;8.50;3.07;;;;;;;;;;5075062;28;20193;-70
2024/01/23 08:45:01;;;;;;;9.40;3.13;;;;;;;;;;5074476;28;20447;-69
2024/01/23 08:47:28;;;;;;;4.73;1.57;;;;;;;;;;5074905;28;20534;-70
2024/01/23 08:49:55;;;;;;;7.77;2.00;;;;;;;;;;5074711;28;20483;-71
2024/01/23 08:52:22;;;;;;;5.77;1.83;;;;;;;;;;5074982;28;20919;-68
2024/01/23 08:54:49;;;;;;;3.40;1.47;;;;;;;;;;5074544;28;20449;-68
2024/01/23 08:57:17;;;;;;;6.93;2.50;;;;;;;;;;5074738;28;20534;-68
2024/01/23 08:59:46;;;;;;;5.25;2.15;;;;;;;;;;5074648;28;20664;-68
2024/01/23 09:02:14;;;;;;;6.53;2.50;;;;;;;;;;5074597;28;20216;-68
2024/01/23 09:04:41;;;;;;;5.30;2.03;;;;;;;;;;5074540;28;20483;-68
2024/01/23 09:07:08;;;;;;;7.43;2.33;;;;;;;;;;5074713;28;20447;-68
2024/01/23 09:09:35;;;;;;;5.17;2.00;;;;;;;;;;5074469;28;20485;-68
2024/01/23 09:12:02;;;;;;;4.60;1.60;;;;;;;;;;5074636;28;21018;-69
2024/01/23 09:14:29;;;;;;;14.10;2.60;;;;;;;;;;5074403;28;20460;-69
2024/01/23 09:16:57;;;;;;;12.33;2.37;;;;;;;;;;5074380;28;20473;-68
2024/01/23 09:19:24;;;;;;;9.02;2.60;;;;;;;;;;5074060;28;20534;-68
2024/01/23 09:21:51;;;;;;;6.23;2.57;;;;;;;;;;5074406;28;20598;-69
2024/01/23 09:24:18;;;;;;;8.50;2.80;;;;;;;;;;5074311;28;20542;-68
2024/01/23 09:26:45;;;;;;;10.90;2.85;;;;;;;;;;5074080;28;20526;-68
2024/01/23 09:29:11;;;;;;;9.90;2.37;;;;;;;;;;5073348;28;20189;-68
2024/01/23 09:31:44;;;;;;;10.80;3.40;;;;;;;;;;5073926;28;20526;-68
2024/01/23 09:34:13;;;;;;;5.27;2.07;;;;;;;;;;5074193;28;20473;-68
2024/01/23 09:36:40;;;;;;;9.63;2.00;;;;;;;;;;5073820;28;20449;-68
2024/01/23 09:39:11;;;;;;;6.83;2.37;;;;;;;;;;5073912;28;20534;-69
2024/01/23 09:41:39;;;;;;;7.87;2.80;;;;;;;;;;5073980;28;20440;-68
2024/01/23 09:44:07;;;;;;;16.07;3.90;;;;;;;;;;5073778;28;20443;-68
2024/01/23 09:46:34;;;;;;;4.70;2.17;;;;;;;;;;5074037;28;20792;-68
2024/01/23 09:49:01;;;;;;;11.40;1.93;;;;;;;;;;5073933;28;20807;-68
2024/01/23 09:51:30;;;;;;;7.17;2.70;;;;;;;;;;5073791;28;20483;-68
2024/01/23 09:53:57;;;;;;;5.17;2.87;;;;;;;;;;5073721;28;20450;-69
2024/01/23 09:56:24;;;;;;;11.30;2.40;;;;;;;;;;5073468;28;20882;-68
2024/01/23 09:58:51;;;;;;;8.13;2.90;;;;;;;;;;5073492;28;20450;-68
2024/01/23 10:01:18;;;;;;;4.73;2.00;;;;;;;;;;5073505;28;20534;-68
2024/01/23 10:03:48;;;;;;;12.13;3.67;;;;;;;;;;5073560;28;20482;-68
2024/01/23 10:06:15;;;;;;;9.67;3.30;;;;;;;;;;5073546;28;20440;-68
2024/01/23 10:08:43;;;;;;;9.10;4.33;;;;;;;;;;5073387;28;20448;-68
2024/01/23 10:11:11;;;;;;;10.67;3.20;;;;;;;;;;5073207;28;20545;-68
2024/01/23 10:13:38;;;;;;;9.33;2.97;;;;;;;;;;5073369;28;20450;-68
2024/01/23 10:16:05;;;;;;;8.33;2.40;;;;;;;;;;5073626;28;20473;-69
2024/01/23 10:18:32;;;;;;;9.03;3.03;;;;;;;;;;5073267;28;20891;-69
2024/01/23 10:20:59;;;;;;;9.60;2.53;;;;;;;;;;5072845;28;20561;-68
2024/01/23 10:23:27;;;;;;;5.57;2.17;;;;;;;;;;5072886;28;20879;-68
2024/01/23 10:25:58;;;;;;;8.70;2.53;;;;;;;;;;5072767;28;20451;-69
2024/01/23 10:28:25;;;;;;;8.85;2.40;;;;;;;;;;5073034;28;20501;-68
2024/01/23 10:30:53;;;;;;;11.20;2.57;;;;;;;;;;5072464;28;20217;-68
2024/01/23 10:33:20;;;;;;;18.73;3.10;;;;;;;;;;5072667;28;20479;-69
2024/01/23 10:35:47;;;;;;;8.67;2.53;;;;;;;;;;5072413;28;20454;-69
2024/01/23 10:38:16;;;;;;;7.13;2.70;;;;;;;;;;5072361;28;20874;-69
2024/01/23 10:40:43;;;;;;;7.67;2.30;;;;;;;;;;5071717;28;20452;-70
2024/01/23 10:43:13;;;;;;;15.60;2.63;;;;;;;;;;5072759;28;20864;-69
2024/01/23 10:45:40;;;;;;;9.70;2.80;;;;;;;;;;5072699;28;20447;-69
2024/01/23 10:48:08;;;;;;;11.63;2.70;;;;;;;;;;5072592;28;20850;-69
2024/01/23 10:50:35;;;;;;;12.60;2.97;;;;;;;;;;5072485;28;20481;-69
2024/01/23 10:53:04;;;;;;;6.03;2.23;;;;;;;;;;5072470;28;20443;-68
2024/01/23 10:55:32;;;;;;;11.10;3.10;;;;;;;;;;5072419;28;20927;-69
2024/01/23 10:58:03;;;;;;;11.73;3.07;;;;;;;;;;5072572;28;20886;-69
2024/01/23 11:00:32;;;;;;;7.93;2.43;;;;;;;;;;5072634;28;20475;-69
2024/01/23 11:03:04;;;;;;;11.20;2.77;;;;;;;;;;5072720;28;20534;-69
2024/01/23 11:05:32;;;;;;;9.80;3.50;;;;;;;;;;5072757;28;20846;-69
2024/01/23 11:08:01;;;;;;;9.90;4.50;;;;;;;;;;5072873;28;20479;-68
2024/01/23 11:10:30;;;;;;;15.60;2.77;;;;;;;;;;5072666;28;20511;-68
2024/01/23 11:13:04;;;;;;;10.10;2.57;;;;;;;;;;5072668;28;20538;-69
2024/01/23 11:15:32;;;;;;;10.00;2.53;;;;;;;;;;5072588;28;21015;-69
2024/01/23 11:18:21;;;;;;;8.00;2.37;;;;;;;;;;5072519;28;20533;-69
2024/01/23 11:21:02;;;;;;;11.13;2.80;;;;;;;;;;5072256;28;20507;-70
2024/01/23 11:23:29;;;;;;;14.83;2.77;;;;;;;;;;5072562;28;20886;-75
2024/01/23 11:25:58;;;;;;;11.47;3.30;;;;;;;;;;5072462;28;20624;-64
2024/01/23 11:28:25;;;;;;;11.37;2.67;;;;;;;;;;5072221;28;20524;-63
2024/01/23 11:31:06;;;;;;;10.60;3.10;;;;;;;;;;5072411;28;20479;-63
2024/01/23 11:33:34;;;;;;;12.97;3.43;;;;;;;;;;5071512;28;20892;-65
2024/01/23 11:36:15;;;;;;;6.17;2.70;;;;;;;;;;5072415;28;20447;-65
2024/01/23 11:38:43;;;;;;;12.80;2.80;;;;;;;;;;5072271;28;20447;-67
2024/01/23 11:41:14;;;;;;;11.90;2.70;;;;;;;;;;5072451;28;20780;-70
2024/01/23 11:43:41;;;;;;;11.90;3.13;;;;;;;;;;5072470;28;20450;-71
2024/01/23 11:46:12;;;;;;;9.97;2.60;;;;;;;;;;5072286;28;20810;-77
2024/01/23 11:48:39;;;;;;;8.80;2.90;;;;;;;;;;5072198;28;20448;-73
2024/01/23 11:51:06;;;;;;;10.30;2.47;;;;;;;;;;5073019;28;20545;-69
2024/01/23 11:53:35;;;;;;;10.10;2.90;;;;;;;;;;5075803;28;20449;-68
2024/01/23 11:56:03;;;;;;;10.20;3.47;;;;;;;;;;5075591;28;20450;-68
2024/01/23 11:58:31;;;;;;;11.40;2.80;;;;;;;;;;5075882;28;20482;-66
2024/01/23 12:00:58;;;;;;;12.43;2.30;;;;;;;;;;5075609;28;20453;-67
2024/01/23 12:03:25;;;;;;;9.53;2.60;;;;;;;;;;5075695;28;20885;-72
2024/01/23 12:05:53;;;;;;;10.80;2.70;;;;;;;;;;5075552;28;20501;-67
2024/01/23 12:08:20;;;;;;;10.53;2.27;;;;;;;;;;5075458;28;20474;-63
2024/01/23 12:10:49;;;;;;;6.73;2.43;;;;;;;;;;5075668;28;20494;-63
2024/01/23 12:13:16;;;;;;;11.33;2.60;;;;;;;;;;5075531;28;20550;-70
2024/01/23 12:15:43;;;;;;;8.10;3.37;;;;;;;;;;5075492;28;20447;-68
2024/01/23 12:18:14;;;;;;;7.20;2.70;;;;;;;;;;5075303;28;20450;-68
2024/01/23 12:20:42;;;;;;;11.80;2.87;;;;;;;;;;5075357;28;20788;-72
2024/01/23 12:23:09;;;;;;;10.60;3.90;;;;;;;;;;5075552;28;20455;-65
2024/01/23 12:25:37;;;;;;;8.80;2.40;;;;;;;;;;5075289;28;20450;-81
2024/01/23 12:28:05;;;;;;;12.30;3.77;;;;;;;;;;5075355;28;20454;-74
2024/01/23 12:30:32;;;;;;;15.30;3.53;;;;;;;;;;5075285;28;20478;-67
2024/01/23 12:32:59;;;;;;;10.90;2.73;;;;;;;;;;5075025;28;20454;-64
2024/01/23 12:35:26;;;;;;;10.53;2.97;;;;;;;;;;5075217;28;20868;-73
2024/01/23 12:37:53;;;;;;;14.60;3.90;;;;;;;;;;5075156;28;20444;-68
2024/01/23 12:40:20;;;;;;;14.40;3.73;;;;;;;;;;5074887;28;20483;-69
2024/01/23 12:42:47;;;;;;;11.37;3.57;;;;;;;;;;5074913;28;20448;-67
2024/01/23 12:45:16;;;;;;;15.80;4.37;;;;;;;;;;5074949;28;20497;-71
2024/01/23 12:47:44;;;;;;;9.57;3.00;;;;;;;;;;5074867;28;20444;-68
2024/01/23 12:50:19;;;;;;;10.17;3.17;;;;;;;;;;5074250;28;20475;-69
2024/01/23 12:52:46;;;;;;;10.40;3.50;;;;;;;;;;5074213;28;20938;-70
2024/01/23 12:55:14;;;;;;;12.00;2.47;;;;;;;;;;5074803;28;20535;-68
2024/01/23 12:57:41;;;;;;;8.97;2.90;;;;;;;;;;5074530;28;20444;-69
2024/01/23 13:00:09;;;;;;;19.27;2.87;;;;;;;;;;5074616;28;20455;-68
2024/01/23 13:02:37;;;;;;;14.20;3.93;;;;;;;;;;5073679;28;20458;-69
2024/01/23 13:05:05;;;;;;;15.17;3.30;;;;;;;;;;5074649;28;20453;-69
2024/01/23 13:07:32;;;;;;;17.57;3.20;;;;;;;;;;5074436;28;20534;-66
2024/01/23 13:09:59;;;;;;;8.67;3.27;;;;;;;;;;5074552;28;20447;-68
2024/01/23 13:12:26;;;;;;;13.67;3.33;;;;;;;;;;5074199;28;20596;-73
2024/01/23 13:14:52;;;;;;;9.73;2.90;;;;;;;;;;5074611;28;20867;-70
2024/01/23 13:17:20;;;;;;;11.23;3.27;;;;;;;;;;5074415;28;20535;-66
2024/01/23 13:19:49;;;;;;;9.43;3.67;;;;;;;;;;5074206;28;20475;-61
2024/01/23 13:22:16;;;;;;;15.57;3.20;;;;;;;;;;5074208;28;20459;-62
2024/01/23 13:24:46;;;;;;;14.67;3.30;;;;;;;;;;5074070;28;20436;-65
2024/01/23 13:27:13;;;;;;;12.93;2.80;;;;;;;;;;5074184;28;20454;-66
2024/01/23 13:29:41;;;;;;;10.03;3.47;;;;;;;;;;5074131;28;20530;-67
2024/01/23 13:32:08;;;;;;;12.63;3.40;;;;;;;;;;5074168;28;20820;-71
2024/01/23 13:34:36;;;;;;;8.33;3.00;;;;;;;;;;5074046;28;20884;-65
2024/01/23 13:37:05;;;;;;;15.97;2.97;;;;;;;;;;5074083;28;20454;-69
2024/01/23 13:39:32;;;;;;;11.20;2.70;;;;;;;;;;5073864;28;20967;-71
2024/01/23 13:41:59;;;;;;;9.50;2.70;;;;;;;;;;5073755;28;20998;-69
2024/01/23 13:44:26;;;;;;;7.57;2.37;;;;;;;;;;5073703;28;20449;-67
2024/01/23 13:46:53;;;;;;;9.03;2.50;;;;;;;;;;5073876;28;20447;-76
2024/01/23 13:49:20;;;;;;;9.10;3.20;;;;;;;;;;5073839;28;20879;-67
2024/01/23 13:51:48;;;;;;;11.77;3.00;;;;;;;;;;5073410;28;20567;-70
2024/01/23 13:54:16;;;;;;;14.83;4.13;;;;;;;;;;5073509;28;20534;-69
2024/01/23 13:56:43;;;;;;;10.10;2.63;;;;;;;;;;5073911;28;20483;-70
2024/01/23 13:59:10;;;;;;;22.17;3.77;;;;;;;;;;5073718;28;20542;-69
2024/01/23 14:01:37;;;;;;;12.53;3.40;;;;;;;;;;5073651;28;20539;-85
2024/01/23 14:04:06;;;;;;;11.77;3.70;;;;;;;;;;5073912;28;20526;-69
2024/01/23 14:06:33;;;;;;;12.30;3.07;;;;;;;;;;5073259;28;20845;-67
2024/01/23 14:09:00;;;;;;;13.17;3.10;;;;;;;;;;5073140;28;20534;-67
2024/01/23 14:11:28;;;;;;;10.97;3.10;;;;;;;;;;5073338;28;20490;-67
2024/01/23 14:13:55;;;;;;;13.77;3.00;;;;;;;;;;5073114;28;20530;-67
2024/01/23 14:16:22;;;;;;;15.60;3.47;;;;;;;;;;5073306;28;20455;-67
2024/01/23 14:18:49;;;;;;;15.23;3.90;;;;;;;;;;5073247;28;20531;-67
2024/01/23 14:21:16;;;;;;;10.80;3.70;;;;;;;;;;5073162;28;20901;-67
2024/01/23 14:23:43;;;;;;;10.83;3.13;;;;;;;;;;5073100;28;20439;-67
2024/01/23 14:26:10;;;;;;;9.20;3.40;;;;;;;;;;5073181;28;20530;-67
2024/01/23 14:28:38;;;;;;;14.30;2.90;;;;;;;;;;5073098;28;20475;-67
2024/01/23 14:31:05;;;;;;;11.13;2.80;;;;;;;;;;5072860;28;20475;-67
2024/01/23 14:33:32;;;;;;;11.20;3.40;;;;;;;;;;5073057;28;20526;-67
2024/01/23 14:36:00;;;;;;;11.00;4.30;;;;;;;;;;5072917;28;20440;-67
2024/01/23 14:38:27;;;;;;;10.67;3.50;;;;;;;;;;5073051;28;20815;-67
2024/01/23 14:40:54;;;;;;;12.13;3.03;;;;;;;;;;5073066;28;20538;-67
2024/01/23 14:43:21;;;;;;;12.83;3.53;;;;;;;;;;5072769;28;20530;-67